createdAt,value
2023-04-21T00:00:28.746Z,18.90
2023-04-21T00:01:28.736Z,19.40
2023-04-21T00:02:28.762Z,19.70
2023-04-21T00:03:28.947Z,20.30
2023-04-21T00:04:29.179Z,21.00
2023-04-21T00:05:28.772Z,20.60
2023-04-21T00:06:28.678Z,20.10
2023-04-21T00:07:28.648Z,20.80
2023-04-21T00:08:28.649Z,19.50
2023-04-21T00:09:28.623Z,20.00
2023-04-21T00:10:28.621Z,20.80
2023-04-21T00:11:28.651Z,21.00
2023-04-21T00:12:28.582Z,19.70
2023-04-21T00:13:28.586Z,21.00
2023-04-21T00:14:28.594Z,18.80
2023-04-21T00:15:28.550Z,20.50
2023-04-21T00:16:28.595Z,19.30
2023-04-21T00:17:28.584Z,18.70
2023-04-21T00:18:28.522Z,20.10
2023-04-21T00:19:28.523Z,25.00
2023-04-21T00:20:28.488Z,25.80
2023-04-21T00:21:28.491Z,28.70
2023-04-21T00:22:28.486Z,22.80
2023-04-21T00:23:28.455Z,20.80
2023-04-21T00:24:28.462Z,20.30
2023-04-21T00:25:28.443Z,19.80
2023-04-21T00:26:28.414Z,18.30
2023-04-21T00:27:28.394Z,19.90
2023-04-21T00:28:28.400Z,20.00
2023-04-21T00:29:28.461Z,18.70
2023-04-21T00:30:28.381Z,18.90
2023-04-21T00:31:28.410Z,19.60
2023-04-21T00:32:28.359Z,20.40
2023-04-21T00:33:28.335Z,19.20
2023-04-21T00:34:28.323Z,20.10
2023-04-21T00:35:28.325Z,19.00
2023-04-21T00:36:28.282Z,19.60
2023-04-21T00:37:28.284Z,20.10
2023-04-21T00:38:28.273Z,19.90
2023-04-21T00:39:28.269Z,20.20
2023-04-21T00:40:28.272Z,18.60
2023-04-21T00:41:28.248Z,19.30
2023-04-21T00:42:28.239Z,19.30
2023-04-21T00:43:28.223Z,19.50
2023-04-21T00:44:28.184Z,19.80
2023-04-21T00:45:28.209Z,20.10
2023-04-21T00:46:28.201Z,19.90
2023-04-21T00:47:28.191Z,20.70
2023-04-21T00:48:28.147Z,20.50
2023-04-21T00:49:28.143Z,20.10
2023-04-21T00:50:28.154Z,19.40
2023-04-21T00:51:28.108Z,20.80
2023-04-21T00:52:28.099Z,21.10
2023-04-21T00:53:28.084Z,20.50
2023-04-21T00:54:28.068Z,20.80
2023-04-21T00:55:28.076Z,20.90
2023-04-21T00:56:28.048Z,21.50
2023-04-21T00:57:28.027Z,22.40
2023-04-21T00:58:28.030Z,24.20
2023-04-21T00:59:28.011Z,22.50
2023-04-21T01:00:28.011Z,22.80
2023-04-21T01:01:28.030Z,22.70
2023-04-21T01:02:28.065Z,22.70
2023-04-21T01:03:28.151Z,23.20
2023-04-21T01:04:27.920Z,22.80
2023-04-21T01:05:27.954Z,22.00
2023-04-21T01:06:27.920Z,23.20
2023-04-21T01:07:27.915Z,22.80
2023-04-21T01:08:27.901Z,23.60
2023-04-21T01:09:27.899Z,22.50
2023-04-21T01:10:27.867Z,23.10
2023-04-21T01:11:27.889Z,22.70
2023-04-21T01:12:27.851Z,22.60
2023-04-21T01:13:27.842Z,21.70
2023-04-21T01:14:27.834Z,23.50
2023-04-21T01:15:27.832Z,22.50
2023-04-21T01:16:27.819Z,24.30
2023-04-21T01:17:27.815Z,22.70
2023-04-21T01:18:27.749Z,22.40
2023-04-21T01:19:27.756Z,22.70
2023-04-21T01:20:27.748Z,23.10
2023-04-21T01:21:27.748Z,24.30
2023-04-21T01:22:27.717Z,23.20
2023-04-21T01:23:27.706Z,23.00
2023-04-21T01:24:27.686Z,25.20
2023-04-21T01:25:27.690Z,23.80
2023-04-21T01:26:27.676Z,22.50
2023-04-21T01:27:27.664Z,23.20
2023-04-21T01:28:27.622Z,23.40
2023-04-21T01:29:27.626Z,23.50
2023-04-21T01:30:27.637Z,23.70
2023-04-21T01:31:27.681Z,23.00
2023-04-21T01:32:27.641Z,24.80
2023-04-21T01:33:27.587Z,23.90
2023-04-21T01:34:27.564Z,24.10
2023-04-21T01:35:27.557Z,24.40
2023-04-21T01:36:27.543Z,25.10
2023-04-21T01:37:27.554Z,22.80
2023-04-21T01:38:27.537Z,23.90
2023-04-21T01:39:27.510Z,23.90
2023-04-21T01:40:27.505Z,25.00
2023-04-21T01:41:27.498Z,24.30
2023-04-21T01:42:27.481Z,22.80
2023-04-21T01:43:27.454Z,23.60
2023-04-21T01:44:27.452Z,22.80
2023-04-21T01:45:27.442Z,25.30
2023-04-21T01:46:27.469Z,24.30
2023-04-21T01:47:27.713Z,22.80
2023-04-21T01:48:27.395Z,23.00
2023-04-21T01:49:27.396Z,24.70
2023-04-21T01:50:27.380Z,23.40
2023-04-21T01:51:27.353Z,23.00
2023-04-21T01:52:27.350Z,24.20
2023-04-21T01:53:27.349Z,24.20
2023-04-21T01:54:27.310Z,25.50
2023-04-21T01:55:27.318Z,25.00
2023-04-21T01:56:27.333Z,23.20
2023-04-21T01:57:27.289Z,25.40
2023-04-21T01:58:27.288Z,26.40
2023-04-21T01:59:27.257Z,26.00
2023-04-21T02:00:27.252Z,26.80
2023-04-21T02:01:27.320Z,25.70
2023-04-21T02:02:27.352Z,25.50
2023-04-21T02:03:27.454Z,25.30
2023-04-21T02:04:27.290Z,26.90
2023-04-21T02:05:27.186Z,25.20
2023-04-21T02:06:27.168Z,26.00
2023-04-21T02:07:27.173Z,25.70
2023-04-21T02:08:27.164Z,25.60
2023-04-21T02:09:27.144Z,26.60
2023-04-21T02:10:27.129Z,24.30
2023-04-21T02:11:27.112Z,26.20
2023-04-21T02:12:27.093Z,26.60
2023-04-21T02:13:27.093Z,23.80
2023-04-21T02:14:27.057Z,23.70
2023-04-21T02:15:27.105Z,23.70
2023-04-21T02:16:27.058Z,24.60
2023-04-21T02:17:27.027Z,25.80
2023-04-21T02:18:27.022Z,24.10
2023-04-21T02:19:27.004Z,28.00
2023-04-21T02:20:27.005Z,29.60
2023-04-21T02:21:26.987Z,25.20
2023-04-21T02:22:26.949Z,26.50
2023-04-21T02:23:26.961Z,30.50
2023-04-21T02:24:26.930Z,31.70
2023-04-21T02:25:26.931Z,27.30
2023-04-21T02:26:26.905Z,26.90
2023-04-21T02:27:26.899Z,27.70
2023-04-21T02:28:26.881Z,30.60
2023-04-21T02:29:26.871Z,28.40
2023-04-21T02:30:26.873Z,26.30
2023-04-21T02:31:27.025Z,28.80
2023-04-21T02:32:27.049Z,27.10
2023-04-21T02:33:26.872Z,28.20
2023-04-21T02:34:26.822Z,25.40
2023-04-21T02:35:26.798Z,26.90
2023-04-21T02:36:26.791Z,27.80
2023-04-21T02:37:26.779Z,27.30
2023-04-21T02:38:26.771Z,27.40
2023-04-21T02:39:26.759Z,32.60
2023-04-21T02:40:26.725Z,28.70
2023-04-21T02:41:26.728Z,27.70
2023-04-21T02:42:26.706Z,27.70
2023-04-21T02:43:26.698Z,26.80
2023-04-21T02:44:26.701Z,26.90
2023-04-21T02:45:26.684Z,27.00
2023-04-21T02:46:26.693Z,28.50
2023-04-21T02:47:26.793Z,29.70
2023-04-21T02:48:26.626Z,31.00
2023-04-21T02:49:26.623Z,28.00
2023-04-21T02:50:26.583Z,28.60
2023-04-21T02:51:26.583Z,27.90
2023-04-21T02:52:26.582Z,42.00
2023-04-21T02:53:26.561Z,30.90
2023-04-21T02:54:26.546Z,34.70
2023-04-21T02:55:26.541Z,31.60
2023-04-21T02:56:26.518Z,31.40
2023-04-21T02:57:26.522Z,37.20
2023-04-21T02:58:26.518Z,30.50
2023-04-21T02:59:26.499Z,38.70
2023-04-21T03:00:26.527Z,30.70
2023-04-21T03:01:26.628Z,30.10
2023-04-21T03:02:26.618Z,29.70
2023-04-21T03:03:26.545Z,29.70
2023-04-21T03:04:26.664Z,30.10
2023-04-21T03:05:26.407Z,31.50
2023-04-21T03:06:26.390Z,29.70
2023-04-21T03:07:26.391Z,29.70
2023-04-21T03:08:26.353Z,28.80
2023-04-21T03:09:26.366Z,30.20
2023-04-21T03:10:26.332Z,29.00
2023-04-21T03:11:26.364Z,27.80
2023-04-21T03:12:26.311Z,29.20
2023-04-21T03:13:26.296Z,28.60
2023-04-21T03:14:26.313Z,29.30
2023-04-21T03:15:26.292Z,29.40
2023-04-21T03:16:26.311Z,30.50
2023-04-21T03:17:26.261Z,28.70
2023-04-21T03:18:26.312Z,29.90
2023-04-21T03:19:26.233Z,37.00
2023-04-21T03:20:26.228Z,32.10
2023-04-21T03:21:26.229Z,31.30
2023-04-21T03:22:26.175Z,30.40
2023-04-21T03:23:26.171Z,32.10
2023-04-21T03:24:26.169Z,30.40
2023-04-21T03:25:26.153Z,30.00
2023-04-21T03:26:26.179Z,29.40
2023-04-21T03:27:26.115Z,32.30
2023-04-21T03:28:26.111Z,26.60
2023-04-21T03:29:26.097Z,32.20
2023-04-21T03:30:26.090Z,31.60
2023-04-21T03:31:26.133Z,30.50
2023-04-21T03:32:26.110Z,30.00
2023-04-21T03:33:26.115Z,33.50
2023-04-21T03:34:26.035Z,29.30
2023-04-21T03:35:26.055Z,27.50
2023-04-21T03:36:26.029Z,33.30
2023-04-21T03:37:26.032Z,37.20
2023-04-21T03:38:25.994Z,27.70
2023-04-21T03:39:26.277Z,30.10
2023-04-21T03:40:25.953Z,27.10
2023-04-21T03:41:25.974Z,27.60
2023-04-21T03:42:25.926Z,29.60
2023-04-21T03:43:25.920Z,28.20
2023-04-21T03:44:25.913Z,33.80
2023-04-21T03:45:25.914Z,32.80
2023-04-21T03:46:25.934Z,28.00
2023-04-21T03:47:25.923Z,26.60
2023-04-21T03:48:25.850Z,23.30
2023-04-21T03:49:25.835Z,27.10
2023-04-21T04:03:03.097Z,28.90
2023-04-21T04:04:03.185Z,26.60
2023-04-21T04:05:03.027Z,33.70
2023-04-21T04:06:02.936Z,33.90
2023-04-21T04:07:02.961Z,30.90
2023-04-21T04:08:02.908Z,28.20
2023-04-21T04:09:02.875Z,28.60
2023-04-21T04:10:02.891Z,32.20
2023-04-21T04:11:02.857Z,35.90
2023-04-21T04:12:02.882Z,28.40
2023-04-21T04:13:02.840Z,25.40
2023-04-21T04:14:02.844Z,27.00
2023-04-21T04:15:02.846Z,24.70
2023-04-21T04:16:02.857Z,25.20
2023-04-21T04:17:02.802Z,26.10
2023-04-21T04:18:02.831Z,22.70
2023-04-21T04:19:02.787Z,24.90
2023-04-21T04:20:02.747Z,23.30
2023-04-21T04:21:02.729Z,22.80
2023-04-21T04:22:02.735Z,27.40
2023-04-21T04:23:02.705Z,21.30
2023-04-21T04:24:02.704Z,25.60
2023-04-21T04:25:02.685Z,23.70
2023-04-21T04:26:02.668Z,22.00
2023-04-21T04:27:02.689Z,21.20
2023-04-21T04:28:02.644Z,22.30
2023-04-21T04:29:02.651Z,23.40
2023-04-21T04:30:02.616Z,21.70
2023-04-21T04:31:02.649Z,30.00
2023-04-21T04:32:02.609Z,25.20
2023-04-21T04:33:02.649Z,22.80
2023-04-21T04:34:02.567Z,24.50
2023-04-21T04:35:02.560Z,22.60
2023-04-21T04:36:02.559Z,25.20
2023-04-21T04:37:02.570Z,25.70
2023-04-21T04:38:02.504Z,24.70
2023-04-21T04:39:02.517Z,22.70
2023-04-21T04:40:02.500Z,29.90
2023-04-21T04:41:02.560Z,22.40
2023-04-21T04:42:02.512Z,22.60
2023-04-21T04:43:02.457Z,21.00
2023-04-21T04:44:02.440Z,24.00
2023-04-21T04:45:02.439Z,21.30
2023-04-21T04:46:02.415Z,25.60
2023-04-21T04:47:02.517Z,26.60
2023-04-21T04:48:02.404Z,21.50
2023-04-21T04:49:02.385Z,23.00
2023-04-21T04:50:02.365Z,20.60
2023-04-21T04:51:02.345Z,19.70
2023-04-21T04:52:02.378Z,21.20
2023-04-21T04:53:02.318Z,20.10
2023-04-21T04:54:02.322Z,19.40
2023-04-21T04:55:02.332Z,18.30
2023-04-21T04:56:02.273Z,20.00
2023-04-21T04:57:02.299Z,22.00
2023-04-21T04:58:02.258Z,21.20
2023-04-21T04:59:02.260Z,22.20
2023-04-21T05:00:02.227Z,21.00
2023-04-21T05:01:02.220Z,20.70
2023-04-21T05:02:02.275Z,21.90
2023-04-21T05:03:02.344Z,19.40
2023-04-21T05:04:02.363Z,20.70
2023-04-21T05:05:02.249Z,20.40
2023-04-21T05:06:02.166Z,20.80
2023-04-21T05:07:02.158Z,19.30
2023-04-21T05:08:02.206Z,20.00
2023-04-21T05:09:02.145Z,22.50
2023-04-21T05:10:02.116Z,20.60
2023-04-21T05:11:02.086Z,22.80
2023-04-21T05:12:02.079Z,23.50
2023-04-21T05:13:02.087Z,23.40
2023-04-21T05:14:02.061Z,22.10
2023-04-21T05:15:02.051Z,21.50
2023-04-21T05:16:02.086Z,24.10
2023-04-21T05:17:02.121Z,28.30
2023-04-21T05:18:02.036Z,23.70
2023-04-21T05:19:02.001Z,23.10
2023-04-21T05:20:01.966Z,25.30
2023-04-21T05:21:01.960Z,25.00
2023-04-21T05:22:01.981Z,25.80
2023-04-21T05:23:01.933Z,25.50
2023-04-21T05:24:01.933Z,28.50
2023-04-21T05:25:01.919Z,28.40
2023-04-21T05:26:04.126Z,26.90
2023-04-21T05:27:01.926Z,27.80
2023-04-21T05:28:01.876Z,26.90
2023-04-21T05:29:01.866Z,26.50
2023-04-21T05:30:01.843Z,28.20
2023-04-21T05:31:01.850Z,27.40
2023-04-21T05:32:01.993Z,29.60
2023-04-21T05:33:01.837Z,28.60
2023-04-21T05:34:01.792Z,29.10
2023-04-21T05:35:01.786Z,29.70
2023-04-21T05:36:01.767Z,32.80
2023-04-21T05:37:01.790Z,30.40
2023-04-21T05:38:01.748Z,28.40
2023-04-21T05:39:01.764Z,28.00
2023-04-21T05:40:01.713Z,29.40
2023-04-21T05:41:01.709Z,30.80
2023-04-21T05:42:01.702Z,30.40
2023-04-21T05:43:01.694Z,32.20
2023-04-21T05:44:01.684Z,30.10
2023-04-21T05:45:01.652Z,30.00
2023-04-21T05:46:01.762Z,28.60
2023-04-21T05:47:01.649Z,28.50
2023-04-21T05:48:01.681Z,29.70
2023-04-21T05:49:01.608Z,27.20
2023-04-21T05:50:01.582Z,26.80
2023-04-21T05:51:01.603Z,26.60
2023-04-21T05:52:01.559Z,26.60
2023-04-21T05:53:01.571Z,26.10
2023-04-21T05:54:01.545Z,26.00
2023-04-21T05:55:01.539Z,25.50
2023-04-21T05:56:01.517Z,26.80
2023-04-21T05:57:01.518Z,27.50
2023-04-21T05:58:01.517Z,28.30
2023-04-21T05:59:01.495Z,26.50
2023-04-21T06:00:01.481Z,27.20
2023-04-21T06:01:01.468Z,27.10
2023-04-21T06:02:01.492Z,27.50
2023-04-21T06:03:01.627Z,27.10
2023-04-21T06:04:01.639Z,28.40
2023-04-21T06:05:01.768Z,29.60
2023-04-21T06:06:01.451Z,31.50
2023-04-21T06:07:01.442Z,29.90
2023-04-21T06:08:01.378Z,28.80
2023-04-21T06:09:01.361Z,27.50
2023-04-21T06:10:01.370Z,25.10
2023-04-21T06:11:01.318Z,23.70
2023-04-21T06:12:01.333Z,26.40
2023-04-21T06:13:01.303Z,26.00
2023-04-21T06:14:01.287Z,25.50
2023-04-21T06:15:01.287Z,24.90
2023-04-21T06:16:01.303Z,25.20
2023-04-21T06:17:01.306Z,24.60
2023-04-21T06:18:01.357Z,25.10
2023-04-21T06:19:01.238Z,96.20
2023-04-21T06:20:01.231Z,27.30
2023-04-21T06:21:01.231Z,22.80
2023-04-21T06:22:01.216Z,24.40
2023-04-21T06:23:01.218Z,23.60
2023-04-21T06:24:01.154Z,24.00
2023-04-21T06:25:01.205Z,22.80
2023-04-21T06:26:01.172Z,23.80
2023-04-21T06:27:01.138Z,22.40
2023-04-21T06:28:01.136Z,23.30
2023-04-21T06:29:01.105Z,22.60
2023-04-21T06:30:01.105Z,25.00
2023-04-21T06:31:01.108Z,28.70
2023-04-21T06:32:01.119Z,28.20
2023-04-21T06:33:01.113Z,26.60
2023-04-21T06:34:01.035Z,28.10
2023-04-21T06:35:01.041Z,26.50
2023-04-21T06:36:01.005Z,23.10
2023-04-21T06:37:01.037Z,22.10
2023-04-21T06:38:01.028Z,24.60
2023-04-21T06:39:00.979Z,22.00
2023-04-21T06:40:01.015Z,20.80
2023-04-21T06:41:00.944Z,22.00
2023-04-21T06:42:00.922Z,22.70
2023-04-21T06:43:00.931Z,22.20
2023-04-21T06:44:00.913Z,20.90
2023-04-21T06:45:00.903Z,19.70
2023-04-21T06:46:00.891Z,18.70
2023-04-21T06:47:00.905Z,19.70
2023-04-21T06:48:00.866Z,20.10
2023-04-21T06:49:00.874Z,19.70
2023-04-21T06:50:00.834Z,19.30
2023-04-21T06:51:00.818Z,18.60
2023-04-21T06:52:00.810Z,19.60
2023-04-21T06:53:00.808Z,22.00
2023-04-21T06:54:00.807Z,19.80
2023-04-21T06:55:00.761Z,18.60
2023-04-21T06:56:00.748Z,19.20
2023-04-21T06:57:00.747Z,31.40
2023-04-21T06:58:00.831Z,26.80
2023-04-21T06:59:00.702Z,23.90
2023-04-21T07:00:00.704Z,19.90
2023-04-21T07:01:00.726Z,20.10
2023-04-21T07:02:00.690Z,21.70
2023-04-21T07:03:00.723Z,21.90
2023-04-21T07:04:00.699Z,20.70
2023-04-21T07:05:00.638Z,19.30
2023-04-21T07:06:00.620Z,19.10
2023-04-21T07:07:03.112Z,21.00
2023-04-21T07:08:00.629Z,18.60
2023-04-21T07:09:00.588Z,20.60
2023-04-21T07:10:00.563Z,20.80
2023-04-21T07:11:00.565Z,19.60
2023-04-21T07:12:00.538Z,20.20
2023-04-21T07:13:00.597Z,18.80
2023-04-21T07:14:00.505Z,21.20
2023-04-21T07:15:00.512Z,20.20
2023-04-21T07:16:00.499Z,18.40
2023-04-21T07:17:00.583Z,19.30
2023-04-21T07:18:00.600Z,22.40
2023-04-21T07:19:00.459Z,18.20
2023-04-21T07:20:00.460Z,21.80
2023-04-21T07:21:00.457Z,20.20
2023-04-21T07:22:00.428Z,19.90
2023-04-21T07:23:00.429Z,18.40
2023-04-21T07:24:00.412Z,18.20
2023-04-21T07:25:00.407Z,16.70
2023-04-21T07:26:00.364Z,15.80
2023-04-21T07:27:00.355Z,20.20
2023-04-21T07:28:00.390Z,16.00
2023-04-21T07:29:00.342Z,19.00
2023-04-21T07:30:00.331Z,18.00
2023-04-21T07:31:02.300Z,16.50
2023-04-21T07:32:00.286Z,17.70
2023-04-21T07:33:00.372Z,20.20
2023-04-21T07:34:00.262Z,17.30
2023-04-21T07:35:00.280Z,15.80
2023-04-21T07:36:00.236Z,15.00
2023-04-21T07:37:00.243Z,18.60
2023-04-21T07:38:00.218Z,17.50
2023-04-21T07:39:00.257Z,19.00
2023-04-21T07:40:00.223Z,25.80
2023-04-21T07:41:00.182Z,26.70
2023-04-21T07:42:00.181Z,29.00
2023-04-21T07:43:00.168Z,27.10
2023-04-21T07:44:00.141Z,21.80
2023-04-21T07:45:00.153Z,18.00
2023-04-21T07:46:00.176Z,15.40
2023-04-21T07:47:00.118Z,15.30
2023-04-21T07:48:00.206Z,15.60
2023-04-21T07:49:02.066Z,14.50
2023-04-21T07:50:00.050Z,14.60
2023-04-21T07:51:00.047Z,14.20
2023-04-21T07:52:00.029Z,15.30
2023-04-21T07:53:00.025Z,14.10
2023-04-21T07:54:00.024Z,14.80
2023-04-21T07:54:59.996Z,14.50
2023-04-21T07:55:59.971Z,15.30
2023-04-21T07:56:59.973Z,17.20
2023-04-21T07:57:59.964Z,14.50
2023-04-21T07:58:59.934Z,13.90
2023-04-21T07:59:59.966Z,13.80
2023-04-21T08:00:59.923Z,14.50
2023-04-21T08:01:59.949Z,14.00
2023-04-21T08:03:00.024Z,14.90
2023-04-21T08:04:00.056Z,13.30
2023-04-21T08:04:59.992Z,9.90
2023-04-21T08:06:00.134Z,10.10
2023-04-21T08:06:59.947Z,10.00
2023-04-21T08:07:59.829Z,12.90
2023-04-21T08:08:59.806Z,9.20
2023-04-21T08:09:59.807Z,10.10
2023-04-21T08:10:59.782Z,9.00
2023-04-21T08:11:59.760Z,8.80
2023-04-21T08:12:59.782Z,8.90
2023-04-21T08:13:59.775Z,9.40
2023-04-21T08:14:59.738Z,8.50
2023-04-21T08:15:59.739Z,8.60
2023-04-21T08:16:59.782Z,10.10
2023-04-21T08:17:59.743Z,9.20
2023-04-21T08:18:59.944Z,9.70
2023-04-21T08:20:00.015Z,9.30
2023-04-21T08:20:59.660Z,8.50
2023-04-21T08:21:59.636Z,8.30
2023-04-21T08:22:59.705Z,8.70
2023-04-21T08:23:59.625Z,8.00
2023-04-21T08:24:59.604Z,7.80
2023-04-21T08:25:59.645Z,8.30
2023-04-21T08:26:59.619Z,7.90
2023-04-21T08:27:59.582Z,7.80
2023-04-21T08:29:00.387Z,7.90
2023-04-21T08:29:59.545Z,9.40
2023-04-21T08:30:59.567Z,8.30
2023-04-21T08:31:59.753Z,8.80
2023-04-21T08:32:59.548Z,7.70
2023-04-21T08:34:02.494Z,8.70
2023-04-21T08:34:59.496Z,8.40
2023-04-21T08:36:07.380Z,8.00
2023-04-21T08:37:00.453Z,7.90
2023-04-21T08:37:59.436Z,8.40
2023-04-21T08:38:59.435Z,7.60
2023-04-21T08:39:59.426Z,8.50
2023-04-21T08:40:59.455Z,8.60
2023-04-21T08:41:59.403Z,7.70
2023-04-21T08:42:59.612Z,8.90
2023-04-21T08:43:59.369Z,10.00
2023-04-21T08:44:59.371Z,9.20
2023-04-21T08:45:59.378Z,9.30
2023-04-21T08:46:59.339Z,9.00
2023-04-21T08:47:59.349Z,9.00
2023-04-21T08:48:59.314Z,8.00
2023-04-21T08:49:59.299Z,8.20
2023-04-21T08:50:59.263Z,8.40
2023-04-21T08:51:59.285Z,8.30
2023-04-21T08:52:59.264Z,7.40
2023-04-21T08:53:59.232Z,9.40
2023-04-21T08:54:59.245Z,7.10
2023-04-21T08:56:10.018Z,7.80
2023-04-21T08:57:11.815Z,7.00
2023-04-21T08:58:00.208Z,9.10
2023-04-21T08:58:59.172Z,7.60
2023-04-21T08:59:59.153Z,7.40
2023-04-21T09:00:59.201Z,7.20
2023-04-21T09:01:59.134Z,6.70
2023-04-21T09:03:01.416Z,6.30
2023-04-21T09:03:59.373Z,7.70
2023-04-21T09:04:59.531Z,8.00
2023-04-21T09:05:59.288Z,6.20
2023-04-21T09:06:59.222Z,6.00
2023-04-21T09:07:59.077Z,5.60
2023-04-21T09:08:59.058Z,6.00
2023-04-21T09:09:59.134Z,5.90
2023-04-21T09:10:59.026Z,5.90
2023-04-21T09:11:59.062Z,5.60
2023-04-21T09:12:58.968Z,5.60
2023-04-21T09:13:59.094Z,5.90
2023-04-21T09:14:58.965Z,6.90
2023-04-21T09:15:58.944Z,6.30
2023-04-21T09:16:59.023Z,6.00
2023-04-21T09:17:58.979Z,5.00
2023-04-21T09:18:58.910Z,5.90
2023-04-21T09:19:58.895Z,5.70
2023-04-21T09:20:58.884Z,5.80
2023-04-21T09:21:58.888Z,5.50
2023-04-21T09:22:58.870Z,6.30
2023-04-21T09:23:58.835Z,5.10
2023-04-21T09:24:58.823Z,5.40
2023-04-21T09:25:58.817Z,5.00
2023-04-21T09:26:58.848Z,6.50
2023-04-21T09:27:58.805Z,5.00
2023-04-21T09:28:58.788Z,5.00
2023-04-21T09:29:58.768Z,5.70
2023-04-21T09:30:58.820Z,4.80
2023-04-21T09:31:58.758Z,5.20
2023-04-21T09:32:58.764Z,5.40
2023-04-21T09:34:00.717Z,4.90
2023-04-21T09:34:58.722Z,5.40
2023-04-21T09:35:58.712Z,4.80
2023-04-21T09:36:58.698Z,4.70
2023-04-21T09:37:58.654Z,5.30
2023-04-21T09:39:24.345Z,6.30
2023-04-21T09:40:58.624Z,4.80
2023-04-21T09:41:58.620Z,5.50
2023-04-21T09:42:58.612Z,5.40
2023-04-21T09:43:58.603Z,5.50
2023-04-21T09:45:10.880Z,5.10
2023-04-21T09:45:59.649Z,5.40
2023-04-21T09:46:58.544Z,5.00
2023-04-21T10:03:02.216Z,4.20
2023-04-21T10:04:02.228Z,4.70
2023-04-21T10:05:02.297Z,6.00
2023-04-21T10:06:02.146Z,4.80
2023-04-21T10:07:02.098Z,5.80
2023-04-21T10:08:02.051Z,5.40
2023-04-21T10:09:02.059Z,4.40
2023-04-21T10:10:02.019Z,4.50
2023-04-21T10:11:02.011Z,5.30
2023-04-21T10:12:02.014Z,4.30
2023-04-21T10:13:01.974Z,5.30
2023-04-21T10:14:01.984Z,6.20
2023-04-21T10:15:02.012Z,4.70
2023-04-21T10:16:01.942Z,3.90
2023-04-21T10:17:01.939Z,5.60
2023-04-21T10:18:01.969Z,4.70
2023-04-21T10:19:01.919Z,4.70
2023-04-21T10:20:01.917Z,6.00
2023-04-21T10:21:01.874Z,5.60
2023-04-21T10:22:01.867Z,4.30
2023-04-21T10:23:01.851Z,6.20
2023-04-21T10:24:01.860Z,4.30
2023-04-21T10:25:01.834Z,4.30
2023-04-21T10:26:01.807Z,4.80
2023-04-21T10:27:01.835Z,4.90
2023-04-21T10:28:01.797Z,4.90
2023-04-21T10:29:01.789Z,6.80
2023-04-21T10:30:01.774Z,4.60
2023-04-21T10:31:01.754Z,5.80
2023-04-21T10:32:01.897Z,4.50
2023-04-21T10:33:01.833Z,4.60
2023-04-21T10:34:01.748Z,4.90
2023-04-21T10:35:01.698Z,4.60
2023-04-21T10:36:01.703Z,4.20
2023-04-21T10:37:01.694Z,4.30
2023-04-21T10:38:01.642Z,4.50
2023-04-21T10:39:01.640Z,4.80
2023-04-21T10:40:01.667Z,4.80
2023-04-21T10:41:01.601Z,4.20
2023-04-21T10:42:01.644Z,6.20
2023-04-21T10:43:01.587Z,4.20
2023-04-21T10:44:08.592Z,4.50
2023-04-21T10:45:01.566Z,4.40
2023-04-21T10:46:01.541Z,4.50
2023-04-21T10:47:01.551Z,4.00
2023-04-21T10:48:01.596Z,4.20
2023-04-21T10:49:01.504Z,4.00
2023-04-21T10:50:01.534Z,4.30
2023-04-21T10:51:01.488Z,3.70
2023-04-21T10:52:01.497Z,3.90
2023-04-21T10:53:01.461Z,5.10
2023-04-21T10:54:01.445Z,4.70
2023-04-21T10:55:01.478Z,8.30
2023-04-21T10:56:01.428Z,4.90
2023-04-21T10:57:01.430Z,5.10
2023-04-21T10:58:01.418Z,8.80
2023-04-21T10:59:01.392Z,5.10
2023-04-21T11:00:01.384Z,7.50
2023-04-21T11:01:01.434Z,4.30
2023-04-21T11:02:01.471Z,4.20
2023-04-21T11:03:01.564Z,3.80
2023-04-21T11:04:01.488Z,4.30
2023-04-21T11:05:01.498Z,4.40
2023-04-21T11:06:01.292Z,5.60
2023-04-21T11:07:01.294Z,5.80
2023-04-21T11:08:01.293Z,4.40
2023-04-21T11:09:01.251Z,4.50
2023-04-21T11:10:01.263Z,4.50
2023-04-21T11:11:01.252Z,5.40
2023-04-21T11:12:01.207Z,4.90
2023-04-21T11:13:01.204Z,5.20
2023-04-21T11:14:01.195Z,4.40
2023-04-21T11:15:01.202Z,4.70
2023-04-21T11:16:01.161Z,5.50
2023-04-21T11:17:01.281Z,4.30
2023-04-21T11:18:01.201Z,4.50
2023-04-21T11:19:01.154Z,4.60
2023-04-21T11:20:01.134Z,4.10
2023-04-21T11:21:01.117Z,3.90
2023-04-21T11:22:08.077Z,6.40
2023-04-21T11:23:01.061Z,7.80
2023-04-21T11:24:01.058Z,4.70
2023-04-21T11:25:01.096Z,4.10
2023-04-21T11:26:01.015Z,3.70
2023-04-21T11:27:08.522Z,3.90
2023-04-21T11:28:00.990Z,3.40
2023-04-21T11:29:07.992Z,5.20
2023-04-21T11:30:07.983Z,3.70
2023-04-21T11:31:08.500Z,3.80
2023-04-21T11:32:07.954Z,5.60
2023-04-21T11:33:00.983Z,3.60
2023-04-21T11:34:00.928Z,2.90
2023-04-21T11:35:00.926Z,3.10
2023-04-21T11:36:00.886Z,2.90
2023-04-21T11:37:00.892Z,2.90
2023-04-21T11:38:00.908Z,3.10
2023-04-21T11:39:00.866Z,3.50
2023-04-21T11:40:00.970Z,3.30
2023-04-21T11:41:00.855Z,3.30
2023-04-21T11:42:00.810Z,3.10
2023-04-21T11:43:07.811Z,3.30
2023-04-21T11:44:00.823Z,2.70
2023-04-21T11:45:00.876Z,3.20
2023-04-21T11:46:00.806Z,3.00
2023-04-21T11:47:00.772Z,2.90
2023-04-21T11:48:00.812Z,3.20
2023-04-21T11:49:00.774Z,3.20
2023-04-21T11:50:00.856Z,2.90
2023-04-21T11:51:00.732Z,4.70
2023-04-21T11:52:00.710Z,3.60
2023-04-21T11:53:00.764Z,5.30
2023-04-21T11:54:00.779Z,3.40
2023-04-21T11:55:00.708Z,3.50
2023-04-21T11:56:00.660Z,3.10
2023-04-21T11:57:02.544Z,3.30
2023-04-21T11:58:00.624Z,3.30
2023-04-21T11:59:00.630Z,3.30
2023-04-21T12:00:00.627Z,3.20
2023-04-21T12:01:00.602Z,4.40
2023-04-21T12:02:00.691Z,4.20
2023-04-21T12:03:00.819Z,3.30
2023-04-21T12:04:00.677Z,4.10
2023-04-21T12:05:00.757Z,3.30
2023-04-21T12:06:00.624Z,3.20
2023-04-21T12:07:00.543Z,3.10
2023-04-21T12:08:00.512Z,3.50
2023-04-21T12:09:00.485Z,3.70
2023-04-21T12:10:00.452Z,4.80
2023-04-21T12:11:00.457Z,3.40
2023-04-21T12:12:00.480Z,3.60
2023-04-21T12:13:00.447Z,3.80
2023-04-21T12:14:00.439Z,3.00
2023-04-21T12:15:00.402Z,2.70
2023-04-21T12:16:00.422Z,2.90
2023-04-21T12:17:00.417Z,2.60
2023-04-21T12:18:00.425Z,2.50
2023-04-21T12:19:00.346Z,4.00
2023-04-21T12:20:00.328Z,2.80
2023-04-21T12:21:00.338Z,2.40
2023-04-21T12:22:00.339Z,4.00
2023-04-21T12:23:00.334Z,2.10
2023-04-21T12:24:00.283Z,2.40
2023-04-21T12:25:00.281Z,2.00
2023-04-21T12:26:00.279Z,2.30
2023-04-21T12:27:00.284Z,3.20
2023-04-21T12:28:00.256Z,2.50
2023-04-21T12:29:00.245Z,2.50
2023-04-21T12:30:00.227Z,3.00
2023-04-21T12:31:00.200Z,3.80
2023-04-21T12:32:00.324Z,4.80
2023-04-21T12:33:00.451Z,2.50
2023-04-21T12:34:00.310Z,2.70
2023-04-21T12:35:00.164Z,2.60
2023-04-21T12:36:00.199Z,2.90
2023-04-21T12:37:00.178Z,4.30
2023-04-21T12:38:00.129Z,2.50
2023-04-21T12:39:00.165Z,2.60
2023-04-21T12:40:00.147Z,2.90
2023-04-21T12:41:00.142Z,2.70
2023-04-21T12:42:00.061Z,3.80
2023-04-21T12:43:00.051Z,3.60
2023-04-21T12:44:00.037Z,2.20
2023-04-21T12:45:00.014Z,2.50
2023-04-21T12:46:00.061Z,3.70
2023-04-21T12:47:00.014Z,2.40
2023-04-21T12:48:00.067Z,2.20
2023-04-21T12:48:59.970Z,2.50
2023-04-21T12:49:59.950Z,2.10
2023-04-21T12:50:59.994Z,2.30
2023-04-21T12:51:59.949Z,3.70
2023-04-21T12:52:59.909Z,2.20
2023-04-21T12:53:59.909Z,2.40
2023-04-21T12:54:59.899Z,3.10
2023-04-21T12:56:04.849Z,4.90
2023-04-21T12:57:00.881Z,5.50
2023-04-21T12:57:59.877Z,2.40
2023-04-21T12:58:59.848Z,2.30
2023-04-21T12:59:59.845Z,2.20
2023-04-21T13:00:59.933Z,3.30
2023-04-21T13:01:59.882Z,2.80
2023-04-21T13:02:59.862Z,3.10
2023-04-21T13:03:59.971Z,2.70
2023-04-21T13:04:59.778Z,2.80
2023-04-21T13:05:59.768Z,2.10
2023-04-21T13:06:59.762Z,3.10
2023-04-21T13:07:59.742Z,2.40
2023-04-21T13:08:59.718Z,2.20
2023-04-21T13:09:59.706Z,2.70
2023-04-21T13:10:59.691Z,2.20
2023-04-21T13:11:59.695Z,2.50
2023-04-21T13:12:59.667Z,1.90
2023-04-21T13:13:59.672Z,2.00
2023-04-21T13:14:59.639Z,2.00
2023-04-21T13:15:59.644Z,2.20
2023-04-21T13:16:59.700Z,2.30
2023-04-21T13:17:59.599Z,2.30
2023-04-21T13:18:59.607Z,3.00
2023-04-21T13:19:59.656Z,2.40
2023-04-21T13:20:59.572Z,3.70
2023-04-21T13:21:59.572Z,1.80
2023-04-21T13:22:59.539Z,2.20
2023-04-21T13:23:59.526Z,2.50
2023-04-21T13:24:59.502Z,1.80
2023-04-21T13:25:59.519Z,2.20
2023-04-21T13:26:59.535Z,1.70
2023-04-21T13:27:59.481Z,2.20
2023-04-21T13:28:59.452Z,1.70
2023-04-21T13:29:59.471Z,2.00
2023-04-21T13:30:59.470Z,2.30